sensor_id;sensor_type;location;lat;lon;timestamp;P1;durP1;ratioP1;P2;durP2;ratioP2
75044;SDS011;63614;56.026;35.960;2024-02-15T00:00:15;14.95;;;7.05;;
75044;SDS011;63614;56.026;35.960;2024-02-15T00:02:57;14.82;;;6.78;;
75044;SDS011;63614;56.026;35.960;2024-02-15T00:05:23;19.35;;;7.15;;
75044;SDS011;63614;56.026;35.960;2024-02-15T00:07:50;22.98;;;7.53;;
75044;SDS011;63614;56.026;35.960;2024-02-15T00:10:15;13.32;;;6.15;;
75044;SDS011;63614;56.026;35.960;2024-02-15T00:12:43;13.55;;;6.15;;
75044;SDS011;63614;56.026;35.960;2024-02-15T00:15:09;16.30;;;6.22;;
75044;SDS011;63614;56.026;35.960;2024-02-15T00:17:36;14.02;;;6.25;;
75044;SDS011;63614;56.026;35.960;2024-02-15T00:20:03;13.27;;;6.90;;
75044;SDS011;63614;56.026;35.960;2024-02-15T00:22:36;15.18;;;6.60;;
75044;SDS011;63614;56.026;35.960;2024-02-15T00:25:02;16.85;;;7.50;;
75044;SDS011;63614;56.026;35.960;2024-02-15T00:27:30;15.98;;;6.95;;
75044;SDS011;63614;56.026;35.960;2024-02-15T00:29:58;15.95;;;6.90;;
75044;SDS011;63614;56.026;35.960;2024-02-15T00:32:24;15.38;;;6.65;;
75044;SDS011;63614;56.026;35.960;2024-02-15T00:34:51;14.32;;;7.68;;
75044;SDS011;63614;56.026;35.960;2024-02-15T00:37:17;12.50;;;5.85;;
75044;SDS011;63614;56.026;35.960;2024-02-15T00:39:43;14.05;;;7.15;;
75044;SDS011;63614;56.026;35.960;2024-02-15T00:42:09;15.85;;;6.32;;
75044;SDS011;63614;56.026;35.960;2024-02-15T00:44:35;12.77;;;6.63;;
75044;SDS011;63614;56.026;35.960;2024-02-15T00:47:01;14.38;;;6.13;;
75044;SDS011;63614;56.026;35.960;2024-02-15T00:49:28;14.43;;;5.37;;
75044;SDS011;63614;56.026;35.960;2024-02-15T00:51:53;14.77;;;6.30;;
75044;SDS011;63614;56.026;35.960;2024-02-15T00:54:19;12.88;;;6.70;;
75044;SDS011;63614;56.026;35.960;2024-02-15T00:56:45;12.75;;;5.13;;
75044;SDS011;63614;56.026;35.960;2024-02-15T00:59:11;12.35;;;5.75;;
75044;SDS011;63614;56.026;35.960;2024-02-15T01:04:06;17.52;;;5.78;;
75044;SDS011;63614;56.026;35.960;2024-02-15T01:06:33;12.23;;;6.13;;
75044;SDS011;63614;56.026;35.960;2024-02-15T01:08:59;11.55;;;5.15;;
75044;SDS011;63614;56.026;35.960;2024-02-15T01:11:27;10.27;;;4.72;;
75044;SDS011;63614;56.026;35.960;2024-02-15T01:13:54;11.80;;;5.65;;
75044;SDS011;63614;56.026;35.960;2024-02-15T01:16:20;15.68;;;6.72;;
75044;SDS011;63614;56.026;35.960;2024-02-15T01:18:50;9.48;;;5.32;;
75044;SDS011;63614;56.026;35.960;2024-02-15T01:21:16;14.65;;;5.85;;
75044;SDS011;63614;56.026;35.960;2024-02-15T01:23:42;12.30;;;5.63;;
75044;SDS011;63614;56.026;35.960;2024-02-15T01:26:08;12.52;;;5.95;;
75044;SDS011;63614;56.026;35.960;2024-02-15T01:28:34;13.02;;;6.30;;
75044;SDS011;63614;56.026;35.960;2024-02-15T01:31:00;13.73;;;6.38;;
75044;SDS011;63614;56.026;35.960;2024-02-15T01:33:27;12.87;;;7.03;;
75044;SDS011;63614;56.026;35.960;2024-02-15T01:35:53;11.02;;;5.13;;
75044;SDS011;63614;56.026;35.960;2024-02-15T01:38:19;14.02;;;6.38;;
75044;SDS011;63614;56.026;35.960;2024-02-15T01:40:46;11.98;;;6.05;;
75044;SDS011;63614;56.026;35.960;2024-02-15T01:43:12;13.00;;;5.30;;
75044;SDS011;63614;56.026;35.960;2024-02-15T01:45:38;9.95;;;5.13;;
75044;SDS011;63614;56.026;35.960;2024-02-15T01:48:04;13.68;;;5.60;;
75044;SDS011;63614;56.026;35.960;2024-02-15T01:50:32;13.98;;;6.15;;
75044;SDS011;63614;56.026;35.960;2024-02-15T01:52:59;13.38;;;5.38;;
75044;SDS011;63614;56.026;35.960;2024-02-15T01:55:29;13.48;;;6.07;;
75044;SDS011;63614;56.026;35.960;2024-02-15T01:57:55;11.05;;;5.10;;
75044;SDS011;63614;56.026;35.960;2024-02-15T02:00:21;13.73;;;6.43;;
75044;SDS011;63614;56.026;35.960;2024-02-15T02:02:57;17.65;;;5.80;;
75044;SDS011;63614;56.026;35.960;2024-02-15T02:05:26;11.43;;;5.47;;
75044;SDS011;63614;56.026;35.960;2024-02-15T02:07:54;11.82;;;6.10;;
75044;SDS011;63614;56.026;35.960;2024-02-15T02:10:23;12.68;;;5.00;;
75044;SDS011;63614;56.026;35.960;2024-02-15T02:12:48;9.88;;;4.70;;
75044;SDS011;63614;56.026;35.960;2024-02-15T02:15:15;19.38;;;6.25;;
75044;SDS011;63614;56.026;35.960;2024-02-15T02:17:40;12.32;;;5.80;;
75044;SDS011;63614;56.026;35.960;2024-02-15T02:20:06;11.13;;;4.72;;
75044;SDS011;63614;56.026;35.960;2024-02-15T02:22:35;12.10;;;5.68;;
75044;SDS011;63614;56.026;35.960;2024-02-15T02:25:05;10.65;;;6.05;;
75044;SDS011;63614;56.026;35.960;2024-02-15T02:27:35;10.77;;;5.35;;
75044;SDS011;63614;56.026;35.960;2024-02-15T02:30:04;10.38;;;5.32;;
75044;SDS011;63614;56.026;35.960;2024-02-15T02:32:42;11.65;;;5.93;;
75044;SDS011;63614;56.026;35.960;2024-02-15T02:35:08;14.32;;;6.30;;
75044;SDS011;63614;56.026;35.960;2024-02-15T02:37:37;10.68;;;4.80;;
75044;SDS011;63614;56.026;35.960;2024-02-15T02:40:04;14.40;;;5.50;;
75044;SDS011;63614;56.026;35.960;2024-02-15T02:43:07;10.45;;;5.70;;
75044;SDS011;63614;56.026;35.960;2024-02-15T02:45:27;14.48;;;5.45;;
75044;SDS011;63614;56.026;35.960;2024-02-15T02:47:53;11.13;;;6.25;;
75044;SDS011;63614;56.026;35.960;2024-02-15T02:50:20;11.63;;;5.43;;
75044;SDS011;63614;56.026;35.960;2024-02-15T02:55:14;9.02;;;4.18;;
75044;SDS011;63614;56.026;35.960;2024-02-15T02:57:41;12.70;;;5.47;;
75044;SDS011;63614;56.026;35.960;2024-02-15T03:00:09;12.02;;;5.97;;
75044;SDS011;63614;56.026;35.960;2024-02-15T03:02:39;10.90;;;5.30;;
75044;SDS011;63614;56.026;35.960;2024-02-15T03:05:06;12.10;;;5.25;;
75044;SDS011;63614;56.026;35.960;2024-02-15T03:07:35;9.10;;;4.63;;
75044;SDS011;63614;56.026;35.960;2024-02-15T03:10:03;7.88;;;4.78;;
75044;SDS011;63614;56.026;35.960;2024-02-15T03:12:34;12.75;;;6.25;;
75044;SDS011;63614;56.026;35.960;2024-02-15T03:15:08;12.45;;;5.40;;
75044;SDS011;63614;56.026;35.960;2024-02-15T03:17:39;11.52;;;6.00;;
75044;SDS011;63614;56.026;35.960;2024-02-15T03:20:10;10.38;;;4.10;;
75044;SDS011;63614;56.026;35.960;2024-02-15T03:22:39;10.57;;;5.63;;
75044;SDS011;63614;56.026;35.960;2024-02-15T03:25:05;9.95;;;4.05;;
75044;SDS011;63614;56.026;35.960;2024-02-15T03:27:35;11.10;;;5.20;;
75044;SDS011;63614;56.026;35.960;2024-02-15T03:30:03;13.75;;;5.82;;
75044;SDS011;63614;56.026;35.960;2024-02-15T03:32:30;7.82;;;4.28;;
75044;SDS011;63614;56.026;35.960;2024-02-15T03:34:56;10.70;;;5.35;;
75044;SDS011;63614;56.026;35.960;2024-02-15T03:37:21;8.30;;;5.03;;
75044;SDS011;63614;56.026;35.960;2024-02-15T03:39:47;13.25;;;5.10;;
75044;SDS011;63614;56.026;35.960;2024-02-15T03:42:13;13.93;;;5.75;;
75044;SDS011;63614;56.026;35.960;2024-02-15T03:44:39;14.10;;;5.35;;
75044;SDS011;63614;56.026;35.960;2024-02-15T03:47:09;17.20;;;5.95;;
75044;SDS011;63614;56.026;35.960;2024-02-15T03:49:35;17.30;;;6.45;;
75044;SDS011;63614;56.026;35.960;2024-02-15T03:52:00;10.18;;;5.55;;
75044;SDS011;63614;56.026;35.960;2024-02-15T03:54:26;14.35;;;6.13;;
75044;SDS011;63614;56.026;35.960;2024-02-15T03:56:55;10.98;;;5.15;;
75044;SDS011;63614;56.026;35.960;2024-02-15T03:59:23;10.57;;;6.03;;
75044;SDS011;63614;56.026;35.960;2024-02-15T04:01:58;12.85;;;5.97;;
75044;SDS011;63614;56.026;35.960;2024-02-15T04:04:24;14.48;;;5.57;;
75044;SDS011;63614;56.026;35.960;2024-02-15T04:06:51;8.45;;;4.32;;
75044;SDS011;63614;56.026;35.960;2024-02-15T04:09:17;13.90;;;5.78;;
75044;SDS011;63614;56.026;35.960;2024-02-15T04:11:44;14.52;;;5.65;;
75044;SDS011;63614;56.026;35.960;2024-02-15T04:14:12;14.95;;;5.00;;
75044;SDS011;63614;56.026;35.960;2024-02-15T04:16:39;12.88;;;5.43;;
75044;SDS011;63614;56.026;35.960;2024-02-15T04:19:05;13.48;;;4.85;;
75044;SDS011;63614;56.026;35.960;2024-02-15T04:21:32;9.63;;;4.75;;
75044;SDS011;63614;56.026;35.960;2024-02-15T04:23:58;14.13;;;5.82;;
75044;SDS011;63614;56.026;35.960;2024-02-15T04:26:25;10.77;;;5.85;;
75044;SDS011;63614;56.026;35.960;2024-02-15T04:28:53;10.60;;;5.50;;
75044;SDS011;63614;56.026;35.960;2024-02-15T04:31:19;11.45;;;5.72;;
75044;SDS011;63614;56.026;35.960;2024-02-15T04:33:47;12.90;;;4.50;;
75044;SDS011;63614;56.026;35.960;2024-02-15T04:36:14;17.42;;;6.18;;
75044;SDS011;63614;56.026;35.960;2024-02-15T04:38:43;10.80;;;5.10;;
75044;SDS011;63614;56.026;35.960;2024-02-15T04:41:09;16.08;;;6.13;;
75044;SDS011;63614;56.026;35.960;2024-02-15T04:43:35;9.95;;;4.57;;
75044;SDS011;63614;56.026;35.960;2024-02-15T04:46:03;9.95;;;4.78;;
75044;SDS011;63614;56.026;35.960;2024-02-15T04:48:33;12.40;;;5.68;;
75044;SDS011;63614;56.026;35.960;2024-02-15T04:50:59;12.57;;;5.57;;
75044;SDS011;63614;56.026;35.960;2024-02-15T04:53:26;12.57;;;6.28;;
75044;SDS011;63614;56.026;35.960;2024-02-15T04:55:55;12.85;;;6.10;;
75044;SDS011;63614;56.026;35.960;2024-02-15T04:58:20;12.88;;;5.95;;
75044;SDS011;63614;56.026;35.960;2024-02-15T05:00:46;9.38;;;4.93;;
75044;SDS011;63614;56.026;35.960;2024-02-15T05:05:39;12.98;;;5.18;;
75044;SDS011;63614;56.026;35.960;2024-02-15T05:08:05;10.77;;;5.50;;
75044;SDS011;63614;56.026;35.960;2024-02-15T05:10:31;14.00;;;5.30;;
75044;SDS011;63614;56.026;35.960;2024-02-15T05:12:56;14.82;;;4.75;;
75044;SDS011;63614;56.026;35.960;2024-02-15T05:15:22;10.68;;;5.32;;
75044;SDS011;63614;56.026;35.960;2024-02-15T05:17:50;16.38;;;5.68;;
75044;SDS011;63614;56.026;35.960;2024-02-15T05:20:16;10.60;;;5.40;;
75044;SDS011;63614;56.026;35.960;2024-02-15T05:22:41;14.23;;;6.70;;
75044;SDS011;63614;56.026;35.960;2024-02-15T05:25:13;12.85;;;6.25;;
75044;SDS011;63614;56.026;35.960;2024-02-15T05:27:40;8.18;;;4.18;;
75044;SDS011;63614;56.026;35.960;2024-02-15T05:30:08;11.80;;;5.60;;
75044;SDS011;63614;56.026;35.960;2024-02-15T05:32:36;11.98;;;5.70;;
75044;SDS011;63614;56.026;35.960;2024-02-15T05:35:08;13.73;;;6.25;;
75044;SDS011;63614;56.026;35.960;2024-02-15T05:37:34;13.88;;;5.90;;
75044;SDS011;63614;56.026;35.960;2024-02-15T05:40:00;9.85;;;5.40;;
75044;SDS011;63614;56.026;35.960;2024-02-15T05:42:26;10.05;;;5.20;;
75044;SDS011;63614;56.026;35.960;2024-02-15T05:44:52;11.02;;;6.15;;
75044;SDS011;63614;56.026;35.960;2024-02-15T05:47:18;13.40;;;6.15;;
75044;SDS011;63614;56.026;35.960;2024-02-15T05:49:45;17.63;;;6.27;;
75044;SDS011;63614;56.026;35.960;2024-02-15T05:52:12;11.75;;;5.80;;
75044;SDS011;63614;56.026;35.960;2024-02-15T05:54:38;11.90;;;5.50;;
75044;SDS011;63614;56.026;35.960;2024-02-15T05:57:06;16.13;;;6.15;;
75044;SDS011;63614;56.026;35.960;2024-02-15T05:59:32;10.38;;;5.63;;
75044;SDS011;63614;56.026;35.960;2024-02-15T06:01:58;11.75;;;5.85;;
75044;SDS011;63614;56.026;35.960;2024-02-15T06:04:24;12.20;;;6.85;;
75044;SDS011;63614;56.026;35.960;2024-02-15T06:06:51;14.07;;;6.07;;
75044;SDS011;63614;56.026;35.960;2024-02-15T06:09:19;14.32;;;6.53;;
75044;SDS011;63614;56.026;35.960;2024-02-15T06:11:47;20.88;;;6.70;;
75044;SDS011;63614;56.026;35.960;2024-02-15T06:14:12;11.73;;;6.22;;
75044;SDS011;63614;56.026;35.960;2024-02-15T06:16:42;17.35;;;5.80;;
75044;SDS011;63614;56.026;35.960;2024-02-15T06:19:09;15.90;;;6.45;;
75044;SDS011;63614;56.026;35.960;2024-02-15T06:21:35;11.20;;;5.78;;
75044;SDS011;63614;56.026;35.960;2024-02-15T06:24:00;12.85;;;5.97;;
75044;SDS011;63614;56.026;35.960;2024-02-15T06:26:26;13.48;;;6.28;;
75044;SDS011;63614;56.026;35.960;2024-02-15T06:28:53;10.98;;;5.03;;
75044;SDS011;63614;56.026;35.960;2024-02-15T06:31:37;15.15;;;6.22;;
75044;SDS011;63614;56.026;35.960;2024-02-15T06:34:21;14.75;;;6.13;;
75044;SDS011;63614;56.026;35.960;2024-02-15T06:37:06;9.07;;;5.40;;
75044;SDS011;63614;56.026;35.960;2024-02-15T06:39:50;11.23;;;4.95;;
75044;SDS011;63614;56.026;35.960;2024-02-15T06:42:17;13.20;;;5.38;;
75044;SDS011;63614;56.026;35.960;2024-02-15T06:44:45;13.52;;;7.15;;
75044;SDS011;63614;56.026;35.960;2024-02-15T06:47:12;13.93;;;6.30;;
75044;SDS011;63614;56.026;35.960;2024-02-15T06:49:41;16.80;;;7.10;;
75044;SDS011;63614;56.026;35.960;2024-02-15T06:52:07;14.15;;;6.43;;
75044;SDS011;63614;56.026;35.960;2024-02-15T06:54:33;12.90;;;6.75;;
75044;SDS011;63614;56.026;35.960;2024-02-15T06:57:01;16.48;;;6.03;;
75044;SDS011;63614;56.026;35.960;2024-02-15T06:59:27;11.93;;;6.40;;
75044;SDS011;63614;56.026;35.960;2024-02-15T07:01:53;15.68;;;5.93;;
75044;SDS011;63614;56.026;35.960;2024-02-15T07:04:19;19.67;;;6.55;;
75044;SDS011;63614;56.026;35.960;2024-02-15T07:06:45;15.02;;;5.60;;
75044;SDS011;63614;56.026;35.960;2024-02-15T07:09:14;11.93;;;6.10;;
75044;SDS011;63614;56.026;35.960;2024-02-15T07:11:41;14.23;;;6.38;;
75044;SDS011;63614;56.026;35.960;2024-02-15T07:14:07;14.90;;;6.43;;
75044;SDS011;63614;56.026;35.960;2024-02-15T07:16:34;21.30;;;7.15;;
75044;SDS011;63614;56.026;35.960;2024-02-15T07:19:00;13.25;;;6.10;;
75044;SDS011;63614;56.026;35.960;2024-02-15T07:21:26;17.25;;;6.65;;
75044;SDS011;63614;56.026;35.960;2024-02-15T07:23:53;10.57;;;5.53;;
75044;SDS011;63614;56.026;35.960;2024-02-15T07:26:25;12.32;;;5.43;;
75044;SDS011;63614;56.026;35.960;2024-02-15T07:28:52;14.75;;;7.60;;
75044;SDS011;63614;56.026;35.960;2024-02-15T07:31:19;19.98;;;7.22;;
75044;SDS011;63614;56.026;35.960;2024-02-15T07:36:12;11.38;;;5.88;;
75044;SDS011;63614;56.026;35.960;2024-02-15T07:38:38;11.55;;;5.95;;
75044;SDS011;63614;56.026;35.960;2024-02-15T07:41:05;18.52;;;6.97;;
75044;SDS011;63614;56.026;35.960;2024-02-15T07:43:30;16.02;;;6.90;;
75044;SDS011;63614;56.026;35.960;2024-02-15T07:45:56;15.82;;;7.22;;
75044;SDS011;63614;56.026;35.960;2024-02-15T07:48:22;13.95;;;6.65;;
75044;SDS011;63614;56.026;35.960;2024-02-15T07:50:47;13.25;;;6.35;;
75044;SDS011;63614;56.026;35.960;2024-02-15T07:53:13;15.40;;;7.22;;
75044;SDS011;63614;56.026;35.960;2024-02-15T07:55:39;11.70;;;5.88;;
75044;SDS011;63614;56.026;35.960;2024-02-15T07:58:07;13.05;;;6.20;;
75044;SDS011;63614;56.026;35.960;2024-02-15T08:00:32;14.63;;;6.35;;
75044;SDS011;63614;56.026;35.960;2024-02-15T08:02:59;12.20;;;6.85;;
75044;SDS011;63614;56.026;35.960;2024-02-15T08:05:25;13.50;;;7.03;;
75044;SDS011;63614;56.026;35.960;2024-02-15T08:07:51;12.45;;;5.93;;
75044;SDS011;63614;56.026;35.960;2024-02-15T08:10:22;12.82;;;6.20;;
75044;SDS011;63614;56.026;35.960;2024-02-15T08:12:48;17.35;;;6.60;;
75044;SDS011;63614;56.026;35.960;2024-02-15T08:15:17;14.60;;;6.85;;
75044;SDS011;63614;56.026;35.960;2024-02-15T08:17:44;18.23;;;7.20;;
75044;SDS011;63614;56.026;35.960;2024-02-15T08:20:14;14.98;;;7.20;;
75044;SDS011;63614;56.026;35.960;2024-02-15T08:22:40;15.70;;;6.63;;
75044;SDS011;63614;56.026;35.960;2024-02-15T08:25:09;13.35;;;6.63;;
75044;SDS011;63614;56.026;35.960;2024-02-15T08:27:42;17.00;;;7.50;;
75044;SDS011;63614;56.026;35.960;2024-02-15T08:30:10;14.40;;;6.95;;
75044;SDS011;63614;56.026;35.960;2024-02-15T08:32:37;16.45;;;7.43;;
75044;SDS011;63614;56.026;35.960;2024-02-15T08:35:05;17.17;;;7.57;;
75044;SDS011;63614;56.026;35.960;2024-02-15T08:37:32;24.10;;;7.07;;
75044;SDS011;63614;56.026;35.960;2024-02-15T08:40:02;17.15;;;7.35;;
75044;SDS011;63614;56.026;35.960;2024-02-15T08:42:41;15.60;;;7.43;;
75044;SDS011;63614;56.026;35.960;2024-02-15T08:45:07;16.60;;;7.30;;
75044;SDS011;63614;56.026;35.960;2024-02-15T08:47:41;16.70;;;6.97;;
75044;SDS011;63614;56.026;35.960;2024-02-15T08:50:08;14.38;;;6.25;;
75044;SDS011;63614;56.026;35.960;2024-02-15T08:52:36;18.30;;;7.43;;
75044;SDS011;63614;56.026;35.960;2024-02-15T08:57:35;14.80;;;6.97;;
75044;SDS011;63614;56.026;35.960;2024-02-15T09:00:03;15.98;;;7.00;;
75044;SDS011;63614;56.026;35.960;2024-02-15T09:02:43;13.68;;;7.18;;
75044;SDS011;63614;56.026;35.960;2024-02-15T09:05:09;15.05;;;7.38;;
75044;SDS011;63614;56.026;35.960;2024-02-15T09:07:38;14.07;;;6.47;;
75044;SDS011;63614;56.026;35.960;2024-02-15T09:10:06;18.42;;;7.88;;
75044;SDS011;63614;56.026;35.960;2024-02-15T09:12:35;14.98;;;6.93;;
75044;SDS011;63614;56.026;35.960;2024-02-15T09:15:03;12.90;;;6.25;;
75044;SDS011;63614;56.026;35.960;2024-02-15T09:17:30;18.65;;;6.95;;
75044;SDS011;63614;56.026;35.960;2024-02-15T09:19:58;14.50;;;6.65;;
75044;SDS011;63614;56.026;35.960;2024-02-15T09:22:24;13.10;;;6.45;;
75044;SDS011;63614;56.026;35.960;2024-02-15T09:24:49;17.45;;;7.53;;
75044;SDS011;63614;56.026;35.960;2024-02-15T09:27:15;15.90;;;7.70;;
75044;SDS011;63614;56.026;35.960;2024-02-15T09:29:41;16.35;;;7.30;;
75044;SDS011;63614;56.026;35.960;2024-02-15T09:32:07;17.73;;;7.18;;
75044;SDS011;63614;56.026;35.960;2024-02-15T09:34:33;14.57;;;7.88;;
75044;SDS011;63614;56.026;35.960;2024-02-15T09:36:59;16.20;;;7.82;;
75044;SDS011;63614;56.026;35.960;2024-02-15T09:39:24;17.65;;;7.32;;
75044;SDS011;63614;56.026;35.960;2024-02-15T09:41:50;17.70;;;8.23;;
75044;SDS011;63614;56.026;35.960;2024-02-15T09:44:23;14.05;;;7.68;;
75044;SDS011;63614;56.026;35.960;2024-02-15T09:47:05;14.57;;;6.95;;
75044;SDS011;63614;56.026;35.960;2024-02-15T09:49:35;14.93;;;7.25;;
75044;SDS011;63614;56.026;35.960;2024-02-15T09:52:08;15.75;;;7.63;;
75044;SDS011;63614;56.026;35.960;2024-02-15T09:54:41;15.13;;;7.50;;
75044;SDS011;63614;56.026;35.960;2024-02-15T09:57:11;20.90;;;8.05;;
75044;SDS011;63614;56.026;35.960;2024-02-15T09:59:37;18.15;;;7.90;;
75044;SDS011;63614;56.026;35.960;2024-02-15T10:02:04;18.57;;;7.93;;
75044;SDS011;63614;56.026;35.960;2024-02-15T10:04:39;14.98;;;6.85;;
75044;SDS011;63614;56.026;35.960;2024-02-15T10:07:05;16.38;;;7.60;;
75044;SDS011;63614;56.026;35.960;2024-02-15T10:09:34;13.95;;;7.45;;
75044;SDS011;63614;56.026;35.960;2024-02-15T10:12:02;13.18;;;6.70;;
75044;SDS011;63614;56.026;35.960;2024-02-15T10:14:29;16.25;;;7.20;;
75044;SDS011;63614;56.026;35.960;2024-02-15T10:16:55;12.30;;;6.83;;
75044;SDS011;63614;56.026;35.960;2024-02-15T10:19:22;13.82;;;7.30;;
75044;SDS011;63614;56.026;35.960;2024-02-15T10:21:52;15.70;;;8.02;;
75044;SDS011;63614;56.026;35.960;2024-02-15T10:24:24;16.52;;;7.10;;
75044;SDS011;63614;56.026;35.960;2024-02-15T10:26:50;27.05;;;8.15;;
75044;SDS011;63614;56.026;35.960;2024-02-15T10:29:19;15.73;;;6.68;;
75044;SDS011;63614;56.026;35.960;2024-02-15T10:31:55;18.13;;;7.38;;
75044;SDS011;63614;56.026;35.960;2024-02-15T10:34:22;14.23;;;7.00;;
75044;SDS011;63614;56.026;35.960;2024-02-15T10:36:53;17.77;;;7.75;;
75044;SDS011;63614;56.026;35.960;2024-02-15T10:39:22;14.40;;;6.88;;
75044;SDS011;63614;56.026;35.960;2024-02-15T10:41:52;14.02;;;7.35;;
75044;SDS011;63614;56.026;35.960;2024-02-15T10:44:20;12.27;;;6.70;;
75044;SDS011;63614;56.026;35.960;2024-02-15T10:49:17;11.75;;;5.90;;
75044;SDS011;63614;56.026;35.960;2024-02-15T10:51:50;15.55;;;7.53;;
75044;SDS011;63614;56.026;35.960;2024-02-15T10:54:43;17.02;;;7.88;;
75044;SDS011;63614;56.026;35.960;2024-02-15T10:57:14;14.43;;;7.00;;
75044;SDS011;63614;56.026;35.960;2024-02-15T10:59:53;14.05;;;7.40;;
75044;SDS011;63614;56.026;35.960;2024-02-15T11:02:30;18.45;;;7.65;;
75044;SDS011;63614;56.026;35.960;2024-02-15T11:05:06;13.98;;;7.32;;
75044;SDS011;63614;56.026;35.960;2024-02-15T11:07:37;17.63;;;6.90;;
75044;SDS011;63614;56.026;35.960;2024-02-15T11:10:05;20.33;;;8.03;;
75044;SDS011;63614;56.026;35.960;2024-02-15T11:12:36;20.17;;;8.95;;
75044;SDS011;63614;56.026;35.960;2024-02-15T11:15:03;17.55;;;7.85;;
75044;SDS011;63614;56.026;35.960;2024-02-15T11:20:09;15.93;;;7.18;;
75044;SDS011;63614;56.026;35.960;2024-02-15T11:22:37;19.08;;;8.45;;
75044;SDS011;63614;56.026;35.960;2024-02-15T11:25:04;15.60;;;7.65;;
75044;SDS011;63614;56.026;35.960;2024-02-15T11:27:34;16.08;;;7.03;;
75044;SDS011;63614;56.026;35.960;2024-02-15T11:30:03;15.85;;;7.82;;
75044;SDS011;63614;56.026;35.960;2024-02-15T11:32:35;16.70;;;8.15;;
75044;SDS011;63614;56.026;35.960;2024-02-15T11:35:07;15.27;;;8.05;;
75044;SDS011;63614;56.026;35.960;2024-02-15T11:40:21;18.10;;;8.32;;
75044;SDS011;63614;56.026;35.960;2024-02-15T11:45:26;21.02;;;8.45;;
75044;SDS011;63614;56.026;35.960;2024-02-15T11:47:58;19.85;;;7.95;;
75044;SDS011;63614;56.026;35.960;2024-02-15T11:50:27;17.60;;;8.32;;
75044;SDS011;63614;56.026;35.960;2024-02-15T11:53:01;14.75;;;7.90;;
75044;SDS011;63614;56.026;35.960;2024-02-15T11:55:32;14.82;;;7.82;;
75044;SDS011;63614;56.026;35.960;2024-02-15T11:57:58;16.48;;;8.15;;
75044;SDS011;63614;56.026;35.960;2024-02-15T12:00:30;16.00;;;8.05;;
75044;SDS011;63614;56.026;35.960;2024-02-15T12:03:15;15.68;;;7.82;;
75044;SDS011;63614;56.026;35.960;2024-02-15T12:06:01;12.43;;;6.75;;
75044;SDS011;63614;56.026;35.960;2024-02-15T12:08:46;15.30;;;7.55;;
75044;SDS011;63614;56.026;35.960;2024-02-15T12:11:32;12.00;;;6.70;;
75044;SDS011;63614;56.026;35.960;2024-02-15T12:14:17;15.65;;;7.65;;
75044;SDS011;63614;56.026;35.960;2024-02-15T12:17:05;15.85;;;8.13;;
75044;SDS011;63614;56.026;35.960;2024-02-15T12:19:52;15.77;;;7.05;;
75044;SDS011;63614;56.026;35.960;2024-02-15T12:22:27;21.63;;;8.25;;
75044;SDS011;63614;56.026;35.960;2024-02-15T12:25:01;20.25;;;9.02;;
75044;SDS011;63614;56.026;35.960;2024-02-15T12:27:43;18.42;;;8.00;;
75044;SDS011;63614;56.026;35.960;2024-02-15T12:30:13;14.90;;;7.10;;
75044;SDS011;63614;56.026;35.960;2024-02-15T12:32:40;15.95;;;7.95;;
75044;SDS011;63614;56.026;35.960;2024-02-15T12:35:13;17.17;;;8.40;;
75044;SDS011;63614;56.026;35.960;2024-02-15T12:38:04;14.15;;;8.25;;
75044;SDS011;63614;56.026;35.960;2024-02-15T12:40:34;20.25;;;8.38;;
75044;SDS011;63614;56.026;35.960;2024-02-15T12:43:01;18.75;;;9.15;;
75044;SDS011;63614;56.026;35.960;2024-02-15T12:45:31;20.73;;;8.15;;
75044;SDS011;63614;56.026;35.960;2024-02-15T12:48:05;17.50;;;8.13;;
75044;SDS011;63614;56.026;35.960;2024-02-15T12:50:31;20.98;;;8.73;;
75044;SDS011;63614;56.026;35.960;2024-02-15T12:55:28;21.13;;;8.93;;
75044;SDS011;63614;56.026;35.960;2024-02-15T12:58:00;17.27;;;8.50;;
75044;SDS011;63614;56.026;35.960;2024-02-15T13:00:29;16.50;;;7.95;;
75044;SDS011;63614;56.026;35.960;2024-02-15T13:03:02;21.25;;;8.13;;
75044;SDS011;63614;56.026;35.960;2024-02-15T13:05:29;18.48;;;8.23;;
75044;SDS011;63614;56.026;35.960;2024-02-15T13:07:57;17.02;;;8.10;;
75044;SDS011;63614;56.026;35.960;2024-02-15T13:10:32;17.40;;;7.68;;
75044;SDS011;63614;56.026;35.960;2024-02-15T13:12:58;17.55;;;9.07;;
75044;SDS011;63614;56.026;35.960;2024-02-15T13:15:24;19.67;;;8.40;;
75044;SDS011;63614;56.026;35.960;2024-02-15T13:17:58;18.67;;;8.93;;
75044;SDS011;63614;56.026;35.960;2024-02-15T13:20:26;15.45;;;7.20;;
75044;SDS011;63614;56.026;35.960;2024-02-15T13:23:03;9.23;;;5.88;;
75044;SDS011;63614;56.026;35.960;2024-02-15T13:25:36;18.67;;;7.78;;
75044;SDS011;63614;56.026;35.960;2024-02-15T13:28:05;20.02;;;8.70;;
75044;SDS011;63614;56.026;35.960;2024-02-15T13:30:32;18.47;;;9.10;;
75044;SDS011;63614;56.026;35.960;2024-02-15T13:32:58;18.00;;;8.70;;
75044;SDS011;63614;56.026;35.960;2024-02-15T13:35:24;16.80;;;8.15;;
75044;SDS011;63614;56.026;35.960;2024-02-15T13:37:51;16.88;;;7.68;;
75044;SDS011;63614;56.026;35.960;2024-02-15T13:40:19;13.80;;;7.65;;
75044;SDS011;63614;56.026;35.960;2024-02-15T13:42:54;17.75;;;7.60;;
75044;SDS011;63614;56.026;35.960;2024-02-15T13:45:34;12.98;;;6.82;;
75044;SDS011;63614;56.026;35.960;2024-02-15T13:48:05;15.98;;;6.80;;
75044;SDS011;63614;56.026;35.960;2024-02-15T13:50:34;16.48;;;7.78;;
75044;SDS011;63614;56.026;35.960;2024-02-15T13:53:01;20.70;;;8.88;;
75044;SDS011;63614;56.026;35.960;2024-02-15T13:55:27;18.05;;;8.70;;
75044;SDS011;63614;56.026;35.960;2024-02-15T13:57:53;20.67;;;8.75;;
75044;SDS011;63614;56.026;35.960;2024-02-15T14:00:24;18.02;;;7.93;;
75044;SDS011;63614;56.026;35.960;2024-02-15T14:03:02;24.20;;;9.07;;
75044;SDS011;63614;56.026;35.960;2024-02-15T14:05:31;19.02;;;9.60;;
75044;SDS011;63614;56.026;35.960;2024-02-15T14:08:02;22.43;;;9.27;;
75044;SDS011;63614;56.026;35.960;2024-02-15T14:10:31;17.40;;;8.05;;
75044;SDS011;63614;56.026;35.960;2024-02-15T14:13:00;20.98;;;9.48;;
75044;SDS011;63614;56.026;35.960;2024-02-15T14:15:29;21.30;;;10.48;;
75044;SDS011;63614;56.026;35.960;2024-02-15T14:17:55;26.02;;;9.02;;
75044;SDS011;63614;56.026;35.960;2024-02-15T14:20:21;18.45;;;8.77;;
75044;SDS011;63614;56.026;35.960;2024-02-15T14:22:48;24.98;;;9.40;;
75044;SDS011;63614;56.026;35.960;2024-02-15T14:27:42;17.10;;;8.93;;
75044;SDS011;63614;56.026;35.960;2024-02-15T14:30:13;18.98;;;8.75;;
75044;SDS011;63614;56.026;35.960;2024-02-15T14:32:58;20.10;;;9.45;;
75044;SDS011;63614;56.026;35.960;2024-02-15T14:35:30;17.73;;;8.40;;
75044;SDS011;63614;56.026;35.960;2024-02-15T14:38:03;25.02;;;8.52;;
75044;SDS011;63614;56.026;35.960;2024-02-15T14:40:33;22.40;;;10.13;;
75044;SDS011;63614;56.026;35.960;2024-02-15T14:43:01;18.17;;;8.20;;
75044;SDS011;63614;56.026;35.960;2024-02-15T14:45:27;22.58;;;10.85;;
75044;SDS011;63614;56.026;35.960;2024-02-15T14:47:54;17.10;;;9.23;;
75044;SDS011;63614;56.026;35.960;2024-02-15T14:50:20;24.58;;;11.30;;
75044;SDS011;63614;56.026;35.960;2024-02-15T14:52:49;25.92;;;11.15;;
75044;SDS011;63614;56.026;35.960;2024-02-15T14:55:15;26.60;;;10.38;;
75044;SDS011;63614;56.026;35.960;2024-02-15T14:57:42;24.83;;;11.23;;